Time;durP1;ratioP1;P1;durP2;ratioP2;P2;SDS_P1;SDS_P2;PMS_P1;PMS_P2;Temp;Humidity;BMP_temperature;BMP_pressure;BME280_temperature;BME280_humidity;BME280_pressure;Samples;Min_cycle;Max_cycle;Signal;HPM_P1;HPM_P2
2022/03/06 00:02:12;;;;;;;53.80;23.93;;;4.20;22.80;;;;;;4974668;28;20261;-72
2022/03/06 00:04:38;;;;;;;50.90;23.93;;;4.00;24.20;;;;;;4974390;28;20178;-72
2022/03/06 00:07:04;;;;;;;47.60;24.50;;;4.10;24.10;;;;;;4973928;28;20437;-72
2022/03/06 00:09:30;;;;;;;51.35;24.33;;;3.80;24.00;;;;;;4956798;28;20218;-72
2022/03/06 00:11:56;;;;;;;59.50;25.47;;;4.00;23.50;;;;;;4973216;28;20191;-71
2022/03/06 00:14:22;;;;;;;58.47;25.55;;;4.00;22.80;;;;;;4959973;28;20178;-72
2022/03/06 00:16:47;;;;;;;58.45;25.80;;;4.00;24.10;;;;;;4973959;28;20193;-72
2022/03/06 00:19:13;;;;;;;59.80;25.10;;;4.10;23.10;;;;;;4973015;28;20179;-71
2022/03/06 00:21:40;;;;;;;63.03;27.55;;;3.90;23.20;;;;;;4957348;28;20222;-71
2022/03/06 00:24:06;;;;;;;56.58;26.08;;;4.10;22.60;;;;;;4955257;28;20179;-70
2022/03/06 00:26:33;;;;;;;56.70;24.58;;;3.80;24.20;;;;;;4971270;28;20218;-72
2022/03/06 00:28:58;;;;;;;56.20;25.27;;;3.80;23.50;;;;;;4974327;28;20269;-73
2022/03/06 00:31:24;;;;;;;59.70;25.57;;;4.00;23.20;;;;;;4958321;28;20303;-72
2022/03/06 00:33:51;;;;;;;51.50;24.77;;;3.90;23.70;;;;;;4955796;28;20801;-73
2022/03/06 00:36:16;;;;;;;57.08;24.65;;;4.10;23.00;;;;;;4963801;28;20246;-72
2022/03/06 00:38:42;;;;;;;55.93;25.07;;;3.60;24.20;;;;;;4973573;28;20675;-73
2022/03/06 00:41:08;;;;;;;49.57;24.67;;;3.60;24.20;;;;;;4972029;28;20214;-72
2022/03/06 00:43:34;;;;;;;53.57;25.33;;;3.50;24.70;;;;;;4972404;28;20926;-72
2022/03/06 00:45:59;;;;;;;51.57;24.20;;;3.30;24.60;;;;;;4971673;28;20178;-72
2022/03/06 00:48:25;;;;;;;53.37;24.83;;;3.60;23.60;;;;;;4973093;28;20183;-72
2022/03/06 00:50:50;;;;;;;53.50;25.10;;;3.60;24.30;;;;;;4974057;28;20593;-72
2022/03/06 00:53:16;;;;;;;53.13;24.30;;;3.60;23.70;;;;;;4972534;28;20273;-71
2022/03/06 00:55:42;;;;;;;52.40;24.70;;;3.40;24.40;;;;;;4974097;28;20185;-71
2022/03/06 00:58:09;;;;;;;57.87;24.43;;;3.40;24.20;;;;;;4970815;28;20426;-73
2022/03/06 01:00:39;;;;;;;50.33;23.63;;;3.20;25.30;;;;;;4976294;28;20210;-72
2022/03/06 01:03:07;;;;;;;45.05;22.35;;;3.40;24.30;;;;;;4973874;28;20172;-72
2022/03/06 01:05:34;;;;;;;50.10;23.85;;;3.50;24.10;;;;;;4972769;28;20175;-72
2022/03/06 01:07:59;;;;;;;54.13;23.80;;;3.50;24.20;;;;;;4969708;28;20643;-72
2022/03/06 01:10:25;;;;;;;48.17;23.50;;;3.40;24.50;;;;;;4955655;28;20343;-73
2022/03/06 01:12:51;;;;;;;51.00;22.95;;;3.20;25.10;;;;;;4959262;28;20175;-72
2022/03/06 01:15:17;;;;;;;50.33;23.17;;;3.10;25.70;;;;;;4971633;28;20179;-72
2022/03/06 01:17:43;;;;;;;51.90;23.50;;;3.40;24.40;;;;;;4958904;28;20270;-72
2022/03/06 01:20:09;;;;;;;52.00;25.20;;;3.30;25.10;;;;;;4975866;28;20214;-72
2022/03/06 01:22:35;;;;;;;45.83;23.15;;;3.40;23.80;;;;;;4959800;28;20305;-72
2022/03/06 01:25:00;;;;;;;59.13;24.13;;;3.40;25.30;;;;;;4974039;28;20517;-72
2022/03/06 01:27:26;;;;;;;50.23;24.67;;;3.40;24.50;;;;;;4967201;28;20258;-72
2022/03/06 01:29:51;;;;;;;51.40;23.40;;;3.40;24.60;;;;;;4971446;28;20198;-72
2022/03/06 01:32:17;;;;;;;54.43;25.23;;;3.70;24.00;;;;;;4975204;28;20190;-73
2022/03/06 01:34:43;;;;;;;56.03;24.77;;;3.50;24.10;;;;;;4966113;28;20179;-72
2022/03/06 01:37:08;;;;;;;50.43;23.73;;;3.10;24.50;;;;;;4972327;28;20178;-73
2022/03/06 01:39:34;;;;;;;50.83;24.00;;;3.40;24.70;;;;;;4971620;28;20206;-72
2022/03/06 01:42:00;;;;;;;54.47;24.73;;;3.20;24.90;;;;;;4965601;28;20199;-72
2022/03/06 01:44:26;;;;;;;53.60;24.53;;;3.00;25.80;;;;;;4965845;28;20552;-71
2022/03/06 01:46:51;;;;;;;51.27;23.53;;;3.00;25.70;;;;;;4959661;28;20658;-72
2022/03/06 01:49:17;;;;;;;61.53;24.10;;;3.10;24.80;;;;;;4970121;28;20447;-73
2022/03/06 01:51:43;;;;;;;55.35;24.67;;;3.10;24.90;;;;;;4956177;28;20211;-72
2022/03/06 01:54:09;;;;;;;49.77;23.70;;;3.10;24.60;;;;;;4964397;28;20214;-72
2022/03/06 01:56:36;;;;;;;52.07;25.10;;;3.00;25.20;;;;;;4973921;28;20438;-72
2022/03/06 01:59:03;;;;;;;49.95;25.23;;;2.90;25.90;;;;;;4967266;28;20427;-72
2022/03/06 02:01:30;;;;;;;55.45;25.00;;;2.90;25.20;;;;;;4964178;28;20222;-71
2022/03/06 02:03:56;;;;;;;44.30;22.13;;;2.70;25.80;;;;;;4972345;28;20178;-72
2022/03/06 02:06:22;;;;;;;55.10;22.17;;;2.60;25.80;;;;;;4966974;28;20185;-73
2022/03/06 02:08:48;;;;;;;55.17;23.35;;;2.60;25.90;;;;;;4965365;28;20190;-72
2022/03/06 02:11:15;;;;;;;52.43;23.67;;;2.50;25.70;;;;;;4968305;28;20600;-73
2022/03/06 02:13:42;;;;;;;46.53;22.92;;;2.60;25.70;;;;;;4971307;28;20186;-72
2022/03/06 02:16:09;;;;;;;60.03;24.17;;;2.60;26.90;;;;;;4964089;28;20176;-72
2022/03/06 02:18:34;;;;;;;52.63;22.73;;;2.50;26.10;;;;;;4968861;28;20310;-72
2022/03/06 02:21:06;;;;;;;50.40;23.20;;;2.80;25.40;;;;;;4959640;28;20755;-72
2022/03/06 02:23:32;;;;;;;56.40;23.27;;;3.00;25.60;;;;;;4962169;28;20179;-72
2022/03/06 02:25:58;;;;;;;54.40;23.92;;;5.30;27.30;;;;;;4969736;28;20285;-72
2022/03/06 02:28:24;;;;;;;50.00;23.60;;;2.80;26.10;;;;;;4963913;28;20203;-72
2022/03/06 02:30:49;;;;;;;47.70;22.70;;;2.70;26.60;;;;;;4957018;28;20230;-72
2022/03/06 02:33:15;;;;;;;55.27;23.40;;;3.00;25.20;;;;;;4965120;28;20187;-71
2022/03/06 02:35:41;;;;;;;49.07;22.57;;;3.10;25.20;;;;;;4962934;28;20195;-72
2022/03/06 02:38:08;;;;;;;50.92;22.73;;;3.20;24.80;;;;;;4969099;28;20191;-72
2022/03/06 02:40:39;;;;;;;44.97;21.85;;;3.30;25.00;;;;;;4970237;28;20226;-71
2022/03/06 02:43:05;;;;;;;47.45;21.30;;;3.30;25.00;;;;;;4973072;28;20178;-72
2022/03/06 02:45:31;;;;;;;46.03;21.88;;;3.20;25.30;;;;;;4967186;28;20179;-72
2022/03/06 02:47:57;;;;;;;48.93;21.63;;;3.20;25.30;;;;;;4974112;28;20186;-73
2022/03/06 02:50:29;;;;;;;47.17;22.85;;;2.80;26.20;;;;;;4964374;28;20442;-72
2022/03/06 02:52:56;;;;;;;47.08;21.10;;;3.10;26.10;;;;;;4962504;28;20666;-73
2022/03/06 02:55:22;;;;;;;46.45;21.33;;;2.90;25.90;;;;;;4969649;28;20634;-73
2022/03/06 02:57:49;;;;;;;45.45;19.88;;;3.00;26.00;;;;;;4956477;28;20187;-73
2022/03/06 03:00:18;;;;;;;53.03;22.33;;;3.00;25.60;;;;;;4969196;28;20206;-74
2022/03/06 03:02:44;;;;;;;47.20;21.67;;;3.20;25.60;;;;;;4977756;28;20305;-72
2022/03/06 03:05:11;;;;;;;47.55;22.45;;;3.10;25.70;;;;;;4967425;28;20178;-72
2022/03/06 03:07:39;;;;;;;48.50;22.75;;;2.80;26.80;;;;;;4981510;28;20193;-74
2022/03/06 03:10:06;;;;;;;51.22;22.52;;;2.70;26.50;;;;;;4971349;28;20206;-73
2022/03/06 03:12:32;;;;;;;45.25;21.40;;;2.60;26.30;;;;;;4965447;28;20226;-72
2022/03/06 03:14:58;;;;;;;45.20;21.47;;;2.70;26.00;;;;;;4970062;28;20186;-73
2022/03/06 03:17:23;;;;;;;49.67;21.60;;;2.50;26.30;;;;;;4972928;28;20175;-73
2022/03/06 03:19:49;;;;;;;46.53;21.80;;;2.40;26.40;;;;;;4970991;28;20199;-72
2022/03/06 03:22:14;;;;;;;46.57;20.73;;;2.30;27.00;;;;;;4963341;28;20195;-72
2022/03/06 03:24:40;;;;;;;48.37;22.23;;;2.20;27.40;;;;;;4971259;28;20186;-72
2022/03/06 03:27:06;;;;;;;45.00;22.07;;;2.20;27.20;;;;;;4962246;28;20179;-72
2022/03/06 03:29:31;;;;;;;44.97;20.70;;;2.00;27.30;;;;;;4969636;28;20210;-72
2022/03/06 03:31:57;;;;;;;48.80;22.50;;;2.20;26.70;;;;;;4962421;28;20195;-73
2022/03/06 03:34:23;;;;;;;50.60;21.47;;;2.60;27.10;;;;;;4963658;28;20644;-73
2022/03/06 03:36:48;;;;;;;53.03;22.30;;;2.20;26.80;;;;;;4969243;28;20241;-71
2022/03/06 03:39:14;;;;;;;49.07;22.33;;;2.10;27.40;;;;;;4961772;28;20184;-72
2022/03/06 03:41:40;;;;;;;48.57;21.97;;;2.30;27.50;;;;;;4976769;28;20214;-72
2022/03/06 03:44:06;;;;;;;51.17;22.60;;;1.90;27.30;;;;;;4977074;28;20195;-71
2022/03/06 03:46:32;;;;;;;64.88;23.20;;;1.50;27.30;;;;;;4969809;28;20214;-72
2022/03/06 03:48:57;;;;;;;52.07;22.03;;;1.60;27.70;;;;;;4968166;28;20171;-72
2022/03/06 03:51:23;;;;;;;64.73;22.40;;;1.80;27.80;;;;;;4993718;28;20834;-72
2022/03/06 03:53:49;;;;;;;51.40;23.00;;;1.90;27.30;;;;;;4968290;28;20182;-72
2022/03/06 03:56:14;;;;;;;49.50;22.80;;;2.00;27.30;;;;;;4964386;28;20182;-72
2022/03/06 03:58:40;;;;;;;48.83;22.47;;;2.00;27.30;;;;;;4977708;28;20273;-72
2022/03/06 04:01:06;;;;;;;48.87;22.47;;;2.10;26.70;;;;;;4962131;28;20222;-72
2022/03/06 04:03:31;;;;;;;44.27;21.00;;;1.90;27.30;;;;;;4974288;28;20182;-71
2022/03/06 04:05:57;;;;;;;53.70;24.40;;;1.70;27.40;;;;;;4963928;28;20311;-73
2022/03/06 04:08:22;;;;;;;48.47;23.17;;;1.60;27.70;;;;;;4959508;28;20266;-72
2022/03/06 04:10:48;;;;;;;53.97;23.07;;;2.30;28.00;;;;;;4957526;28;20229;-72
2022/03/06 04:13:14;;;;;;;52.97;23.80;;;1.80;27.60;;;;;;4970326;28;20630;-72
2022/03/06 04:15:39;;;;;;;51.30;23.40;;;1.70;28.00;;;;;;4955763;28;20646;-72
2022/03/06 04:18:05;;;;;;;47.90;22.80;;;1.70;28.00;;;;;;4962871;28;20178;-73
2022/03/06 04:20:31;;;;;;;55.80;24.73;;;1.90;27.70;;;;;;4956747;28;20206;-72
2022/03/06 04:22:57;;;;;;;46.60;22.20;;;1.90;27.60;;;;;;4971121;28;20658;-72
2022/03/06 04:25:23;;;;;;;49.47;23.42;;;1.90;27.30;;;;;;4964290;28;20179;-72
2022/03/06 04:27:49;;;;;;;50.78;21.42;;;2.00;27.30;;;;;;4970103;28;20189;-72
2022/03/06 04:30:15;;;;;;;45.60;22.03;;;1.80;27.20;;;;;;4959280;28;20222;-72
2022/03/06 04:32:41;;;;;;;55.07;23.37;;;2.00;27.30;;;;;;4963157;28;20188;-72
2022/03/06 04:35:07;;;;;;;54.30;24.47;;;2.00;27.50;;;;;;4964961;28;20433;-72
2022/03/06 04:37:33;;;;;;;51.47;23.67;;;2.30;27.30;;;;;;4965273;28;20183;-72
2022/03/06 04:39:59;;;;;;;43.65;21.88;;;1.90;28.40;;;;;;4964297;28;20219;-72
2022/03/06 04:42:25;;;;;;;47.47;22.87;;;2.00;27.70;;;;;;4967470;28;20206;-71
2022/03/06 04:44:50;;;;;;;51.80;23.80;;;1.80;28.20;;;;;;4966479;28;20183;-72
2022/03/06 04:47:16;;;;;;;50.57;22.33;;;1.70;28.10;;;;;;4965253;28;20343;-72
2022/03/06 04:49:41;;;;;;;47.20;22.20;;;1.60;28.40;;;;;;4969003;28;20237;-72
2022/03/06 04:52:07;;;;;;;46.63;21.47;;;1.60;28.40;;;;;;4968897;28;20199;-72
2022/03/06 04:54:34;;;;;;;48.40;21.73;;;1.90;27.70;;;;;;4969680;28;20191;-71
2022/03/06 04:57:00;;;;;;;52.50;23.52;;;2.00;27.50;;;;;;4969497;28;20859;-71
2022/03/06 04:59:26;;;;;;;54.03;23.10;;;2.10;27.40;;;;;;4963288;28;20195;-72
2022/03/06 05:01:53;;;;;;;54.87;22.23;;;2.00;27.30;;;;;;4967271;28;20218;-72
2022/03/06 05:04:19;;;;;;;47.35;22.05;;;2.20;28.40;;;;;;4971735;28;20509;-72
2022/03/06 05:06:45;;;;;;;50.80;22.77;;;1.80;28.80;;;;;;4960683;28;20265;-72
2022/03/06 05:09:10;;;;;;;47.80;24.50;;;1.70;28.30;;;;;;4969962;28;20488;-71
2022/03/06 05:11:36;;;;;;;48.37;22.10;;;1.90;27.80;;;;;;4966566;28;20303;-72
2022/03/06 05:14:02;;;;;;;53.43;22.63;;;1.90;28.20;;;;;;4958995;28;20180;-72
2022/03/06 05:16:28;;;;;;;53.03;21.70;;;2.00;28.00;;;;;;4956234;28;20493;-73
2022/03/06 05:18:54;;;;;;;54.17;22.37;;;1.80;28.50;;;;;;4970456;28;20187;-73
2022/03/06 05:21:20;;;;;;;49.28;21.38;;;2.20;28.50;;;;;;4971476;28;20297;-73
2022/03/06 05:23:45;;;;;;;49.37;22.90;;;1.70;28.10;;;;;;4968605;28;20644;-72
2022/03/06 05:26:11;;;;;;;49.90;24.07;;;1.80;28.70;;;;;;4961695;28;20198;-74
2022/03/06 05:28:37;;;;;;;47.53;21.43;;;1.60;28.60;;;;;;4969823;28;20278;-73
2022/03/06 05:31:03;;;;;;;43.17;20.90;;;1.80;28.00;;;;;;4954852;28;20204;-73
2022/03/06 05:33:29;;;;;;;51.78;22.33;;;1.70;28.10;;;;;;4962949;28;20186;-73
2022/03/06 05:35:54;;;;;;;52.20;21.73;;;1.60;28.60;;;;;;4961919;28;20179;-73
2022/03/06 05:38:20;;;;;;;51.63;23.90;;;1.70;28.00;;;;;;4961009;28;20427;-72
2022/03/06 05:40:46;;;;;;;50.87;21.93;;;2.10;28.40;;;;;;4961890;28;20215;-74
2022/03/06 05:43:11;;;;;;;50.53;22.20;;;1.70;28.10;;;;;;4955012;28;20172;-73
2022/03/06 05:45:37;;;;;;;44.03;20.40;;;1.90;28.20;;;;;;4964133;28;20659;-73
2022/03/06 05:48:03;;;;;;;50.57;22.50;;;1.80;28.50;;;;;;4967002;28;20419;-73
2022/03/06 05:50:28;;;;;;;53.40;22.00;;;1.80;28.20;;;;;;4969470;28;20671;-74
2022/03/06 05:52:54;;;;;;;47.13;20.87;;;1.70;28.80;;;;;;4964124;28;20182;-73
2022/03/06 05:55:20;;;;;;;46.50;19.97;;;1.50;29.20;;;;;;4965521;28;20180;-73
2022/03/06 05:57:45;;;;;;;46.47;20.83;;;1.40;29.10;;;;;;4961061;28;20610;-73
2022/03/06 06:00:12;;;;;;;54.83;22.47;;;1.30;29.30;;;;;;4967263;28;20194;-73
2022/03/06 06:02:39;;;;;;;50.60;23.13;;;1.30;29.60;;;;;;4954972;28;20553;-73
2022/03/06 06:05:08;;;;;;;47.35;21.50;;;1.50;28.70;;;;;;4954704;28;20701;-74
2022/03/06 06:07:35;;;;;;;47.38;21.52;;;1.40;28.80;;;;;;4960451;28;20202;-73
2022/03/06 06:10:03;;;;;;;46.05;21.88;;;1.70;28.30;;;;;;4971910;28;20217;-73
2022/03/06 06:12:28;;;;;;;51.55;22.92;;;1.70;28.70;;;;;;4972159;28;20178;-72
2022/03/06 06:14:54;;;;;;;54.37;21.83;;;1.70;28.80;;;;;;4963097;28;20183;-73
2022/03/06 06:17:20;;;;;;;46.97;21.20;;;1.80;29.10;;;;;;4960471;28;20214;-73
2022/03/06 06:19:46;;;;;;;59.28;21.77;;;1.60;28.80;;;;;;4968953;28;20207;-73
2022/03/06 06:22:12;;;;;;;46.37;22.70;;;1.80;29.10;;;;;;4964385;28;20256;-73
2022/03/06 06:24:38;;;;;;;48.90;20.88;;;1.60;28.80;;;;;;4957491;28;20230;-73
2022/03/06 06:27:04;;;;;;;51.17;22.67;;;1.50;29.20;;;;;;4963733;28;20270;-72
2022/03/06 06:29:30;;;;;;;42.27;21.40;;;1.50;29.10;;;;;;4972057;28;20438;-73
2022/03/06 06:31:56;;;;;;;50.95;21.10;;;1.60;29.00;;;;;;4971656;28;20424;-73
2022/03/06 06:34:21;;;;;;;51.80;22.20;;;1.90;28.50;;;;;;4968783;28;20536;-72
2022/03/06 06:36:48;;;;;;;48.67;22.53;;;1.80;28.50;;;;;;4970247;28;20702;-74
2022/03/06 06:39:14;;;;;;;45.80;22.08;;;1.70;28.80;;;;;;4975772;28;20414;-79
2022/03/06 06:41:41;;;;;;;47.90;21.83;;;1.80;28.50;;;;;;4963835;28;20242;-78
2022/03/06 06:44:08;;;;;;;49.92;21.80;;;2.20;29.30;;;;;;4975316;28;20179;-79
2022/03/06 06:46:34;;;;;;;51.75;22.13;;;1.90;28.40;;;;;;4964691;28;20706;-79
2022/03/06 06:49:00;;;;;;;50.58;22.65;;;2.10;28.80;;;;;;4963388;28;20207;-75
2022/03/06 06:51:29;;;;;;;47.90;22.13;;;2.20;29.00;;;;;;4964375;28;20190;-75
2022/03/06 06:53:55;;;;;;;47.35;21.90;;;1.90;29.20;;;;;;4971999;28;20183;-75
2022/03/06 06:56:21;;;;;;;48.05;21.70;;;1.90;29.40;;;;;;4969483;28;20249;-77
2022/03/06 06:58:47;;;;;;;43.73;21.47;;;2.20;29.30;;;;;;4965505;28;20179;-73
2022/03/06 07:01:15;;;;;;;48.17;21.97;;;2.00;28.90;;;;;;4962851;28;20625;-73
2022/03/06 07:03:40;;;;;;;49.17;22.40;;;2.30;28.10;;;;;;4964650;28;20179;-73
2022/03/06 07:06:06;;;;;;;52.17;23.60;;;2.20;28.70;;;;;;4967697;28;20185;-72
2022/03/06 07:08:32;;;;;;;50.97;22.53;;;2.20;29.00;;;;;;4962492;28;20398;-73
2022/03/06 07:10:57;;;;;;;48.73;23.37;;;2.20;28.50;;;;;;4963214;28;20222;-73
2022/03/06 07:13:23;;;;;;;57.77;25.07;;;2.60;28.70;;;;;;4977172;28;20195;-74
2022/03/06 07:15:48;;;;;;;54.70;24.77;;;2.20;28.40;;;;;;4963159;28;20183;-75
2022/03/06 07:18:14;;;;;;;56.73;24.13;;;2.00;28.40;;;;;;4971108;28;20231;-75
2022/03/06 07:20:40;;;;;;;53.93;24.00;;;2.00;28.60;;;;;;4971006;28;20250;-75
2022/03/06 07:23:05;;;;;;;56.70;24.73;;;1.90;28.70;;;;;;4972455;28;20193;-74
2022/03/06 07:25:31;;;;;;;53.87;24.27;;;2.00;28.70;;;;;;4966501;28;20179;-75
2022/03/06 07:27:57;;;;;;;57.83;24.87;;;2.00;28.80;;;;;;4957380;28;20656;-75
2022/03/06 07:30:23;;;;;;;48.47;23.50;;;2.80;28.40;;;;;;4965839;28;20290;-75
2022/03/06 07:32:50;;;;;;;53.30;23.93;;;2.30;28.30;;;;;;4962959;28;20541;-75
2022/03/06 07:35:17;;;;;;;49.40;22.13;;;2.30;28.50;;;;;;4972077;28;20369;-73
2022/03/06 07:37:44;;;;;;;51.72;22.70;;;2.60;28.30;;;;;;4960220;28;20253;-75
2022/03/06 07:40:11;;;;;;;52.83;24.38;;;2.70;27.90;;;;;;4959342;28;20236;-74
2022/03/06 07:42:38;;;;;;;58.88;26.80;;;2.90;27.90;;;;;;4957068;28;20238;-74
2022/03/06 07:45:05;;;;;;;55.80;24.75;;;3.20;27.70;;;;;;4967694;28;20187;-74
2022/03/06 07:47:30;;;;;;;50.78;23.25;;;3.20;27.40;;;;;;4966216;28;20184;-74
2022/03/06 07:49:56;;;;;;;50.17;23.90;;;3.50;27.10;;;;;;4962429;28;20214;-75
2022/03/06 07:52:22;;;;;;;51.97;24.23;;;3.60;27.20;;;;;;4964781;28;20191;-74
2022/03/06 07:54:47;;;;;;;54.97;25.00;;;3.50;27.20;;;;;;4963339;28;20426;-75
2022/03/06 07:57:13;;;;;;;54.50;24.03;;;3.40;27.50;;;;;;4962518;28;20205;-75
2022/03/06 07:59:39;;;;;;;47.40;22.50;;;3.40;27.70;;;;;;4965411;28;20227;-76
2022/03/06 08:02:05;;;;;;;53.10;23.30;;;3.50;27.30;;;;;;4973000;28;20198;-77
2022/03/06 08:04:30;;;;;;;54.50;25.03;;;3.60;27.20;;;;;;4968832;28;20674;-77
2022/03/06 08:06:56;;;;;;;48.60;23.10;;;3.60;27.40;;;;;;4969750;28;20183;-77
2022/03/06 08:09:24;;;;;;;43.63;20.60;;;3.50;27.30;;;;;;4970103;28;20572;-77
2022/03/06 08:11:50;;;;;;;48.83;21.92;;;3.40;27.80;;;;;;4966682;28;20537;-78
2022/03/06 08:14:16;;;;;;;54.42;25.08;;;3.30;28.20;;;;;;4974157;28;20183;-78
2022/03/06 08:16:42;;;;;;;47.73;22.13;;;3.40;28.20;;;;;;4971290;28;20178;-75
2022/03/06 08:19:08;;;;;;;50.70;24.77;;;3.00;28.90;;;;;;4973562;28;20229;-74
2022/03/06 08:21:33;;;;;;;48.27;23.63;;;3.60;28.40;;;;;;4971705;28;20459;-74
2022/03/06 08:23:59;;;;;;;49.87;22.90;;;3.10;28.80;;;;;;4969850;28;20176;-74
2022/03/06 08:26:25;;;;;;;47.15;21.98;;;3.20;28.90;;;;;;4960807;28;20229;-74
2022/03/06 08:28:51;;;;;;;45.03;22.37;;;3.00;29.40;;;;;;4958057;28;20183;-74
2022/03/06 08:31:17;;;;;;;51.65;23.40;;;3.90;28.60;;;;;;4966016;28;20681;-75
2022/03/06 08:33:43;;;;;;;58.63;22.73;;;4.30;27.30;;;;;;4962663;28;20190;-75
2022/03/06 08:36:09;;;;;;;43.80;22.80;;;4.50;27.00;;;;;;4966281;28;20222;-75
2022/03/06 08:38:34;;;;;;;51.77;22.63;;;4.80;26.90;;;;;;4966441;28;20240;-74
2022/03/06 08:41:00;;;;;;;43.57;22.40;;;4.60;26.70;;;;;;4962587;28;20209;-74
2022/03/06 08:43:26;;;;;;;51.30;23.00;;;4.80;27.00;;;;;;4970033;28;20202;-74
2022/03/06 08:45:52;;;;;;;47.03;21.33;;;4.80;26.60;;;;;;4966176;28;20233;-75
2022/03/06 08:48:17;;;;;;;41.40;22.10;;;4.70;26.30;;;;;;4967736;28;20239;-75
2022/03/06 08:50:43;;;;;;;41.13;20.23;;;4.80;26.90;;;;;;4970728;28;20202;-76
2022/03/06 08:53:09;;;;;;;40.93;22.53;;;5.00;26.40;;;;;;4959395;28;20236;-75
2022/03/06 08:55:34;;;;;;;51.30;23.10;;;5.10;26.60;;;;;;4966489;28;20221;-75
2022/03/06 08:58:00;;;;;;;45.93;22.60;;;4.90;26.70;;;;;;4971787;28;20418;-75
2022/03/06 09:00:26;;;;;;;47.73;22.33;;;4.90;27.00;;;;;;4966107;28;20202;-75
2022/03/06 09:02:51;;;;;;;53.00;23.70;;;5.40;26.40;;;;;;4964925;28;20203;-75
2022/03/06 09:05:20;;;;;;;45.93;24.00;;;5.20;27.00;;;;;;4973813;28;20182;-75
2022/03/06 09:07:46;;;;;;;45.05;23.83;;;5.80;26.50;;;;;;4964792;28;20262;-75
2022/03/06 09:10:13;;;;;;;45.92;23.10;;;5.90;25.60;;;;;;4965334;28;20214;-75
2022/03/06 09:12:39;;;;;;;47.63;23.50;;;6.20;25.10;;;;;;4965737;28;20183;-75
2022/03/06 09:15:06;;;;;;;46.22;23.20;;;6.20;24.90;;;;;;4972994;28;20187;-75
2022/03/06 09:17:32;;;;;;;49.17;24.25;;;6.00;25.30;;;;;;4964935;28;20246;-75
2022/03/06 09:19:58;;;;;;;40.90;22.43;;;6.00;24.90;;;;;;4965192;28;20482;-75
2022/03/06 09:22:24;;;;;;;50.13;23.50;;;5.80;25.60;;;;;;4965321;28;20210;-75
2022/03/06 09:24:49;;;;;;;44.70;21.23;;;6.00;25.20;;;;;;4973146;28;20545;-75
2022/03/06 09:27:15;;;;;;;54.53;23.33;;;6.50;25.60;;;;;;4965984;28;20207;-75
2022/03/06 09:29:41;;;;;;;48.13;23.70;;;6.80;24.90;;;;;;4958233;28;20254;-74
2022/03/06 09:32:07;;;;;;;39.43;20.80;;;6.90;24.40;;;;;;4957330;28;20194;-75
2022/03/06 09:34:32;;;;;;;47.33;22.93;;;6.60;23.90;;;;;;4959095;28;20679;-75
2022/03/06 09:36:58;;;;;;;39.83;21.83;;;6.80;24.00;;;;;;4961794;28;20921;-75
2022/03/06 09:39:24;;;;;;;42.70;20.50;;;7.00;23.70;;;;;;4972586;28;20194;-74
2022/03/06 09:41:53;;;;;;;44.78;21.10;;;6.70;23.00;;;;;;4964756;28;20289;-74
2022/03/06 09:44:22;;;;;;;46.95;22.98;;;6.10;24.20;;;;;;4972546;28;20230;-74
2022/03/06 09:46:48;;;;;;;44.42;21.60;;;6.30;24.10;;;;;;4965061;28;20179;-74
2022/03/06 09:49:15;;;;;;;40.05;20.42;;;6.60;23.60;;;;;;4961588;28;20211;-74
2022/03/06 09:51:41;;;;;;;41.17;21.05;;;6.90;23.00;;;;;;4968331;28;20178;-75
2022/03/06 09:54:09;;;;;;;39.20;20.45;;;7.30;22.00;;;;;;4971164;28;20225;-75
2022/03/06 09:56:35;;;;;;;39.65;20.45;;;8.00;22.00;;;;;;4963818;28;20194;-75
2022/03/06 09:59:02;;;;;;;43.50;21.80;;;7.60;21.30;;;;;;4976494;28;20558;-75
2022/03/06 10:01:28;;;;;;;43.83;21.95;;;7.30;22.20;;;;;;4967573;28;20988;-75
2022/03/06 10:03:54;;;;;;;40.40;22.27;;;7.30;22.80;;;;;;4970863;28;20186;-73
2022/03/06 10:06:19;;;;;;;38.83;20.57;;;6.80;23.20;;;;;;4964707;28;20426;-74
2022/03/06 10:08:45;;;;;;;39.10;20.87;;;7.30;23.50;;;;;;4965339;28;20244;-73
2022/03/06 10:11:12;;;;;;;34.10;18.27;;;7.80;21.00;;;;;;4970735;28;20214;-74
2022/03/06 10:13:43;;;;;;;30.77;17.10;;;8.00;20.10;;;;;;4961390;28;20194;-74
2022/03/06 10:16:12;;;;;;;34.95;17.00;;;7.60;19.20;;;;;;4969579;28;20222;-73
2022/03/06 10:18:48;;;;;;;37.58;18.90;;;7.50;19.10;;;;;;4964550;28;20618;-73
2022/03/06 10:21:20;;;;;;;27.88;15.35;;;7.50;19.10;;;;;;4963965;28;20221;-74
2022/03/06 10:23:47;;;;;;;26.45;15.43;;;7.80;18.10;;;;;;4967224;28;20203;-74
2022/03/06 10:26:18;;;;;;;27.13;15.63;;;7.80;17.80;;;;;;4969168;28;20183;-74
2022/03/06 10:28:45;;;;;;;63.25;37.40;;;7.80;18.10;;;;;;4964076;28;20646;-73
2022/03/06 10:31:12;;;;;;;36.15;20.75;;;8.00;18.40;;;;;;4971432;28;20206;-74
2022/03/06 10:33:38;;;;;;;29.23;15.57;;;7.90;18.20;;;;;;4971983;28;20662;-73
2022/03/06 10:36:07;;;;;;;27.97;14.87;;;8.10;17.20;;;;;;4963608;28;20245;-74
2022/03/06 10:38:36;;;;;;;27.00;14.70;;;8.40;16.20;;;;;;4960104;28;20486;-73
2022/03/06 10:41:14;;;;;;;28.08;15.73;;;7.70;17.30;;;;;;4960839;28;20270;-73
2022/03/06 10:43:40;;;;;;;24.48;14.52;;;8.90;18.30;;;;;;4964294;28;20233;-73
2022/03/06 10:46:08;;;;;;;27.20;14.65;;;7.60;16.90;;;;;;4970551;28;20656;-74
2022/03/06 10:48:34;;;;;;;30.23;15.60;;;8.00;16.90;;;;;;4964727;28;20202;-74
2022/03/06 10:51:01;;;;;;;24.20;14.70;;;8.80;15.20;;;;;;4965762;28;20250;-75
2022/03/06 10:53:28;;;;;;;25.85;15.32;;;8.80;15.80;;;;;;4963495;28;20179;-75
2022/03/06 10:55:54;;;;;;;28.05;15.73;;;9.60;15.30;;;;;;4963969;28;20213;-74
2022/03/06 10:58:21;;;;;;;27.40;15.87;;;9.40;15.20;;;;;;4963389;28;20338;-74
2022/03/06 11:00:48;;;;;;;28.10;16.33;;;9.30;15.00;;;;;;4963898;28;20448;-74
2022/03/06 11:03:14;;;;;;;27.57;15.63;;;9.60;15.30;;;;;;4963758;28;20190;-74
2022/03/06 11:05:44;;;;;;;29.23;16.10;;;10.30;13.50;;;;;;4960423;28;20554;-74
2022/03/06 11:08:15;;;;;;;27.37;16.70;;;11.10;12.30;;;;;;4960022;28;20422;-75
2022/03/06 11:10:42;;;;;;;29.90;17.00;;;11.50;11.90;;;;;;4963614;28;20950;-75
2022/03/06 11:13:12;;;;;;;26.10;17.07;;;11.40;12.10;;;;;;4963745;28;20486;-75
2022/03/06 11:15:38;;;;;;;27.13;17.33;;;12.60;10.80;;;;;;4961125;28;20425;-75
2022/03/06 11:18:06;;;;;;;29.20;18.13;;;13.80;10.50;;;;;;4952071;28;20419;-75
2022/03/06 11:20:33;;;;;;;25.43;17.43;;;13.10;10.00;;;;;;4960497;28;20815;-75
2022/03/06 11:23:56;;;;;;;30.63;19.60;;;12.90;10.20;;;;;;4961090;28;20482;-75
2022/03/06 11:26:22;;;;;;;26.93;17.23;;;13.60;9.80;;;;;;4959770;28;20962;-75
2022/03/06 11:29:32;;;;;;;25.50;16.33;;;14.50;10.20;;;;;;4950288;28;20545;-75
2022/03/06 11:32:05;;;;;;;24.70;16.20;;;14.30;8.20;;;;;;4950279;28;20725;-75
2022/03/06 11:34:36;;;;;;;28.97;17.20;;;14.30;8.90;;;;;;4958567;28;20426;-75
2022/03/06 11:37:15;;;;;;;28.23;18.10;;;14.90;8.60;;;;;;4960828;28;20433;-75
2022/03/06 11:39:42;;;;;;;28.40;16.20;;;14.20;8.10;;;;;;4966289;28;20593;-75
2022/03/06 11:42:09;;;;;;;26.07;17.23;;;14.40;8.40;;;;;;4963232;28;20521;-75
2022/03/06 11:44:49;;;;;;;27.73;16.50;;;14.20;8.10;;;;;;4960249;28;20858;-75
2022/03/06 11:47:17;;;;;;;25.97;16.70;;;13.60;9.10;;;;;;4963762;28;20431;-75
2022/03/06 11:49:52;;;;;;;25.47;16.27;;;13.90;9.00;;;;;;4952621;28;20995;-75
2022/03/06 11:52:29;;;;;;;26.33;16.87;;;14.90;8.60;;;;;;4954213;28;20935;-75
2022/03/06 11:54:55;;;;;;;26.20;17.77;;;14.80;7.60;;;;;;4961580;28;20435;-75
2022/03/06 11:57:40;;;;;;;26.27;16.70;;;14.30;9.10;;;;;;4958356;28;20432;-75
2022/03/06 12:00:27;;;;;;;27.80;17.47;;;11.40;10.60;;;;;;4957201;28;20473;-75
2022/03/06 12:02:55;;;;;;;27.60;15.93;;;10.80;11.00;;;;;;4958914;28;20829;-75
2022/03/06 12:05:23;;;;;;;26.30;16.60;;;10.20;12.20;;;;;;4974274;28;20437;-74
2022/03/06 12:07:50;;;;;;;27.23;17.00;;;10.00;12.00;;;;;;4973627;28;20432;-74
2022/03/06 12:10:17;;;;;;;29.90;16.70;;;10.00;12.70;;;;;;4966516;28;20489;-74
2022/03/06 12:12:55;;;;;;;29.73;18.40;;;10.80;13.20;;;;;;4966605;28;20431;-74
2022/03/06 12:15:28;;;;;;;29.73;17.83;;;12.20;11.40;;;;;;4974396;28;20444;-74
2022/03/06 12:18:05;;;;;;;26.73;16.40;;;13.50;9.50;;;;;;4965620;28;20427;-75
2022/03/06 12:20:41;;;;;;;26.93;17.30;;;12.70;9.60;;;;;;4966175;28;20730;-75
2022/03/06 12:23:23;;;;;;;29.90;17.40;;;12.40;10.10;;;;;;4955508;28;20429;-75
2022/03/06 12:25:55;;;;;;;29.20;16.73;;;11.70;10.50;;;;;;4964644;28;20472;-74
2022/03/06 12:28:24;;;;;;;32.23;17.70;;;12.50;10.10;;;;;;4966238;28;20412;-74
2022/03/06 12:30:50;;;;;;;26.97;16.70;;;13.10;10.40;;;;;;4973610;28;20523;-74
2022/03/06 12:33:25;;;;;;;30.60;17.37;;;13.10;9.20;;;;;;4973354;28;20922;-74
2022/03/06 12:35:51;;;;;;;25.30;16.17;;;12.70;9.30;;;;;;4964341;28;20416;-74